Airport View

Enter AWOS ICAO identifier for current METAR.

ex. KFNL

KTIW 191253Z AUTO 19005KT 10SM SCT012 BKN020 OVC026 03/02 A3026 RMK AO2 SLP249 T00330017

19 Feb 2019 13:30

Phone: 253-858-6507

Other Area AWOS: KTCM - KGRF - KSEA - KPWT

TAF KTCM 191302Z 1913/2019 19009KT 9000 BR OVC040 620406 QNH3024INS BECMG 1915/1916 20009KT 8000 -SHRA BKN030 BKN040 OVC200 610307 QNH3022INS BECMG 1921/1922 18009KT 9000 -SHRA BKN010 OVC020 610307 QNH3010INS TEMPO 2000/2006 BKN008 BECMG 2008/2009 21009KT 9000 -SHRA BKN030 610307 QNH2980INS BECMG 2010/2011 18009KT 9000 -SHRA OVC030 610406 QNH2978INS TX04/1923Z TN02/2009Z